Time;durP1;ratioP1;P1;durP2;ratioP2;P2;SDS_P1;SDS_P2;PMS_P1;PMS_P2;Temp;Humidity;BMP_temperature;BMP_pressure;BME280_temperature;BME280_humidity;BME280_pressure;Samples;Min_cycle;Max_cycle;Signal;HPM_P1;HPM_P2
2022/10/11 00:02:59;;;;;;;;;;;;;;;20.71;51.73;96124.22;10513183;28;3234;-46
2022/10/11 00:08:00;;;;;;;;;;;;;;;20.70;51.92;96120.78;10518728;28;2721;-47
2022/10/11 00:13:00;;;;;;;;;;;;;;;20.70;51.88;96123.41;10510851;28;2736;-46
2022/10/11 00:18:00;;;;;;;;;;;;;;;20.69;51.62;96139.50;10501680;28;3159;-47
2022/10/11 00:23:05;;;;;;;;;;;;;;;20.69;51.78;96142.91;10503781;28;3543;-46
2022/10/11 00:28:05;;;;;;;;;;;;;;;20.67;51.63;96138.97;10520565;28;2172;-46
2022/10/11 00:33:05;;;;;;;;;;;;;;;20.67;51.74;96146.88;10511160;28;2725;-49
2022/10/11 00:38:06;;;;;;;;;;;;;;;20.66;51.57;96150.53;10504602;28;3111;-48
2022/10/11 00:43:16;;;;;;;;;;;;;;;20.66;51.62;96155.81;10495215;28;2737;-46
2022/10/11 00:48:18;;;;;;;;;;;;;;;20.66;51.43;96161.88;10514442;28;2193;-48
2022/10/11 00:53:24;;;;;;;;;;;;;;;20.64;51.44;96161.34;10483341;28;2023;-50
2022/10/11 00:58:24;;;;;;;;;;;;;;;20.65;51.38;96167.41;10522057;28;3104;-47
2022/10/11 01:03:25;;;;;;;;;;;;;;;20.63;51.23;96175.56;10528643;28;2702;-47
2022/10/11 01:08:25;;;;;;;;;;;;;;;20.63;51.33;96177.44;10526104;28;3163;-47
2022/10/11 01:13:32;;;;;;;;;;;;;;;20.64;51.24;96184.25;10533611;28;2124;-50
2022/10/11 01:19:02;;;;;;;;;;;;;;;20.63;51.01;96175.56;10515211;28;3381;-48
2022/10/11 01:24:05;;;;;;;;;;;;;;;20.63;50.81;96172.94;10466372;28;3143;-47
2022/10/11 01:29:11;;;;;;;;;;;;;;;20.61;51.11;96167.13;10534198;28;2650;-47
2022/10/11 01:34:34;;;;;;;;;;;;;;;20.60;51.07;96173.47;10507495;28;2039;-46
2022/10/11 01:39:37;;;;;;;;;;;;;;;20.61;50.80;96164.50;10517096;28;2179;-46
2022/10/11 01:44:37;;;;;;;;;;;;;;;20.61;50.93;96161.09;10510210;28;2023;-49
2022/10/11 01:49:38;;;;;;;;;;;;;;;20.61;50.74;96167.13;10531480;28;3162;-48
2022/10/11 01:54:48;;;;;;;;;;;;;;;20.59;50.92;96166.59;10528168;28;2682;-50
2022/10/11 01:59:48;;;;;;;;;;;;;;;20.60;50.78;96170.03;10528123;28;2725;-48
2022/10/11 02:05:01;;;;;;;;;;;;;;;20.59;50.87;96163.97;10526260;28;2757;-46
2022/10/11 02:10:14;;;;;;;;;;;;;;;20.58;50.81;96165.03;10545772;28;2740;-51
2022/10/11 02:15:15;;;;;;;;;;;;;;;20.60;50.83;96160.31;10522414;28;2670;-50
2022/10/11 02:20:19;;;;;;;;;;;;;;;20.58;50.95;96153.72;10525834;28;3254;-46
2022/10/11 02:25:21;;;;;;;;;;;;;;;20.59;50.80;96158.72;10534807;28;3261;-46
2022/10/11 02:30:21;;;;;;;;;;;;;;;20.59;50.73;96155.28;10538166;28;2038;-47
2022/10/11 02:35:23;;;;;;;;;;;;;;;20.57;50.54;96150.28;10538983;28;3202;-47
2022/10/11 02:40:25;;;;;;;;;;;;;;;20.58;50.44;96151.88;10540428;28;2713;-48
2022/10/11 02:45:26;;;;;;;;;;;;;;;20.57;50.65;96160.81;10541223;28;2721;-48
2022/10/11 02:50:27;;;;;;;;;;;;;;;20.57;50.61;96155.53;10530101;28;3136;-49
2022/10/11 02:55:27;;;;;;;;;;;;;;;20.55;50.42;96152.38;10537915;28;3130;-50
2022/10/11 03:00:27;;;;;;;;;;;;;;;20.58;50.48;96148.44;10512772;28;2713;-48
2022/10/11 03:05:36;;;;;;;;;;;;;;;20.55;50.49;96151.59;10523678;28;3371;-50
2022/10/11 03:10:36;;;;;;;;;;;;;;;20.54;50.48;96161.34;10518668;28;3222;-47
2022/10/11 03:15:37;;;;;;;;;;;;;;;20.55;50.38;96157.66;10494920;28;3171;-46
2022/10/11 03:20:37;;;;;;;;;;;;;;;20.54;50.18;96164.00;10519243;28;2713;-48
2022/10/11 03:25:37;;;;;;;;;;;;;;;20.54;50.39;96171.09;10519375;28;2645;-49
2022/10/11 03:30:37;;;;;;;;;;;;;;;20.53;50.39;96180.84;10519507;28;3155;-48
2022/10/11 03:35:39;;;;;;;;;;;;;;;20.55;50.24;96181.34;10512426;28;2044;-47
2022/10/11 03:40:40;;;;;;;;;;;;;;;20.61;49.94;96190.06;10496570;28;2040;-50
2022/10/11 03:45:43;;;;;;;;;;;;;;;20.69;50.03;96198.22;10518914;28;2662;-49
2022/10/11 03:50:43;;;;;;;;;;;;;;;20.77;49.76;96202.97;10521359;28;2745;-50
2022/10/11 03:55:44;;;;;;;;;;;;;;;20.85;49.76;96215.63;10517469;28;3092;-52
2022/10/11 04:00:44;;;;;;;;;;;;;;;20.91;49.49;96211.13;10521085;28;2030;-47
2022/10/11 04:05:46;;;;;;;;;;;;;;;20.94;49.13;96211.41;10533565;28;3179;-49
2022/10/11 04:10:47;;;;;;;;;;;;;;;20.93;48.74;96207.19;10522370;28;3229;-48
2022/10/11 04:15:47;;;;;;;;;;;;;;;20.97;48.65;96218.00;10523792;28;2053;-46
2022/10/11 04:20:47;;;;;;;;;;;;;;;21.00;48.98;96215.59;10530342;28;1983;-45
2022/10/11 04:25:48;;;;;;;;;;;;;;;21.04;48.66;96214.06;10534341;28;2805;-47
2022/10/11 04:30:48;;;;;;;;;;;;;;;21.07;48.55;96210.09;10520838;28;3103;-44
2022/10/11 04:35:51;;;;;;;;;;;;;;;21.11;48.39;96207.72;10535889;27;3108;-47
2022/10/11 04:40:52;;;;;;;;;;;;;;;21.15;49.00;96209.56;10537930;28;2713;-46
2022/10/11 04:45:52;;;;;;;;;;;;;;;21.20;48.75;96206.13;10518420;28;3279;-46
2022/10/11 04:50:52;;;;;;;;;;;;;;;21.23;48.93;96202.94;10535580;28;3155;-45
2022/10/11 04:55:56;;;;;;;;;;;;;;;21.29;48.77;96209.81;10519738;28;2007;-46
2022/10/11 05:00:57;;;;;;;;;;;;;;;21.36;48.57;96212.97;10526011;28;2043;-46
2022/10/11 05:05:57;;;;;;;;;;;;;;;21.37;48.85;96214.53;10528197;28;2713;-45
2022/10/11 05:11:02;;;;;;;;;;;;;;;21.37;48.92;96212.69;10514124;28;3160;-46
2022/10/11 05:16:03;;;;;;;;;;;;;;;21.38;48.73;96203.72;10517561;28;2116;-47
2022/10/11 05:21:07;;;;;;;;;;;;;;;21.41;48.73;96219.00;10525835;28;3116;-46
2022/10/11 05:26:08;;;;;;;;;;;;;;;21.44;48.49;96217.69;10531715;28;3381;-47
2022/10/11 05:31:08;;;;;;;;;;;;;;;21.44;48.54;96209.78;10541423;28;2698;-49
2022/10/11 05:36:14;;;;;;;;;;;;;;;21.48;48.65;96216.09;10521573;28;2006;-45
2022/10/11 05:41:15;;;;;;;;;;;;;;;21.49;48.42;96226.41;10520235;28;3123;-47
2022/10/11 05:46:15;;;;;;;;;;;;;;;21.50;47.93;96221.88;10512954;28;2792;-50
2022/10/11 05:51:15;;;;;;;;;;;;;;;21.49;47.59;96236.16;10521495;28;3155;-51
2022/10/11 05:56:22;;;;;;;;;;;;;;;21.50;48.30;96243.00;10522931;28;2722;-46
2022/10/11 06:01:23;;;;;;;;;;;;;;;21.51;47.42;96245.38;10515503;28;3348;-50
2022/10/11 06:06:23;;;;;;;;;;;;;;;21.53;47.15;96245.91;10518236;28;3340;-46
2022/10/11 06:11:24;;;;;;;;;;;;;;;21.55;47.43;96240.34;10519033;28;3428;-49
2022/10/11 06:16:25;;;;;;;;;;;;;;;21.56;47.17;96241.91;10527648;28;2248;-48
2022/10/11 06:21:25;;;;;;;;;;;;;;;21.59;48.15;96242.19;10511287;28;2129;-46
2022/10/11 06:26:25;;;;;;;;;;;;;;;21.65;48.21;96258.78;10508104;28;3273;-47
2022/10/11 06:31:26;;;;;;;;;;;;;;;21.66;47.91;96249.81;10516727;28;3289;-45
2022/10/11 06:36:26;;;;;;;;;;;;;;;21.67;48.31;96254.03;10511976;28;3341;-46
2022/10/11 06:41:27;;;;;;;;;;;;;;;21.65;48.18;96256.94;10513701;28;3297;-46
2022/10/11 06:46:29;;;;;;;;;;;;;;;21.67;48.03;96254.84;10523895;28;2104;-47
2022/10/11 06:51:30;;;;;;;;;;;;;;;21.69;48.08;96267.75;10497772;28;2125;-48
2022/10/11 06:56:30;;;;;;;;;;;;;;;21.71;47.87;96271.72;10513489;28;2853;-47
2022/10/11 07:01:31;;;;;;;;;;;;;;;21.67;47.97;96280.41;10512160;28;2123;-46
2022/10/11 07:06:33;;;;;;;;;;;;;;;21.67;47.96;96286.50;10527783;28;2171;-46
2022/10/11 07:11:33;;;;;;;;;;;;;;;21.61;48.28;96286.75;10525632;28;2778;-46
2022/10/11 07:16:34;;;;;;;;;;;;;;;21.63;48.29;96292.56;10534674;28;2885;-46
2022/10/11 07:21:35;;;;;;;;;;;;;;;21.56;48.36;96292.03;10519099;28;3423;-46
2022/10/11 07:26:35;;;;;;;;;;;;;;;21.59;48.01;96309.97;10507377;28;3304;-45
2022/10/11 07:31:36;;;;;;;;;;;;;;;21.53;48.18;96305.78;10513970;28;3289;-45
2022/10/11 07:36:36;;;;;;;;;;;;;;;21.51;48.19;96305.25;10513719;28;3241;-46
2022/10/11 07:41:37;;;;;;;;;;;;;;;21.53;48.27;96305.78;10516381;28;2845;-46
2022/10/11 07:46:38;;;;;;;;;;;;;;;21.49;48.67;96313.44;10517440;28;3408;-46
2022/10/11 07:51:38;;;;;;;;;;;;;;;21.49;48.64;96316.06;10507525;28;2902;-45
2022/10/11 07:56:39;;;;;;;;;;;;;;;21.42;48.56;96320.81;10509319;28;3288;-46
2022/10/11 08:01:39;;;;;;;;;;;;;;;21.44;48.35;96313.44;10505868;28;3301;-45
2022/10/11 08:06:39;;;;;;;;;;;;;;;21.45;48.40;96319.50;10512181;28;2818;-48
2022/10/11 08:11:39;;;;;;;;;;;;;;;21.44;48.48;96320.53;10503924;28;3717;-46
2022/10/11 08:16:45;;;;;;;;;;;;;;;21.41;48.71;96329.00;10510681;28;3309;-45
2022/10/11 08:21:53;;;;;;;;;;;;;;;21.37;48.75;96330.59;10508562;28;3282;-45
2022/10/11 08:26:53;;;;;;;;;;;;;;;21.41;48.65;96326.38;10493167;28;3336;-45
2022/10/11 08:31:54;;;;;;;;;;;;;;;21.42;48.28;96328.72;10520474;28;2366;-45
2022/10/11 08:36:54;;;;;;;;;;;;;;;21.49;48.53;96333.75;10517840;28;2190;-46
2022/10/11 08:41:57;;;;;;;;;;;;;;;21.52;48.10;96341.09;10512312;28;3257;-47
2022/10/11 08:46:59;;;;;;;;;;;;;;;21.44;48.23;96345.06;10496161;28;3309;-46
2022/10/11 08:52:01;;;;;;;;;;;;;;;21.45;48.36;96343.25;10509172;28;3717;-45
2022/10/11 08:57:03;;;;;;;;;;;;;;;21.48;48.23;96350.59;10534327;28;2826;-45
2022/10/11 09:02:11;;;;;;;;;;;;;;;21.46;48.29;96350.09;10546054;28;3371;-48
2022/10/11 09:07:24;;;;;;;;;;;;;;;21.46;48.36;96344.81;10527344;28;2984;-47
2022/10/11 09:12:29;;;;;;;;;;;;;;;21.44;48.40;96353.00;10529493;28;3384;-47
2022/10/11 09:17:29;;;;;;;;;;;;;;;21.42;48.25;96351.66;10533053;28;2842;-47
2022/10/11 09:22:32;;;;;;;;;;;;;;;21.48;48.18;96340.06;10521681;28;3003;-47
2022/10/11 09:27:37;;;;;;;;;;;;;;;21.44;48.62;96339.00;10524482;28;3242;-48
2022/10/11 09:32:38;;;;;;;;;;;;;;;21.43;48.54;96342.72;10516249;28;2919;-47
2022/10/11 09:38:03;;;;;;;;;;;;;;;21.46;48.36;96342.16;10524685;28;3272;-49
2022/10/11 09:43:03;;;;;;;;;;;;;;;21.43;48.42;96332.16;10543229;28;2928;-46
2022/10/11 09:48:04;;;;;;;;;;;;;;;21.46;48.37;96337.69;10515501;28;3269;-45
2022/10/11 09:53:06;;;;;;;;;;;;;;;21.45;48.26;96330.06;10543430;28;2782;-45
2022/10/11 09:58:22;;;;;;;;;;;;;;;21.52;48.11;96331.34;10523989;28;2138;-46
2022/10/11 10:03:27;;;;;;;;;;;;;;;21.56;48.21;96331.59;10523269;28;3282;-46
2022/10/11 10:08:27;;;;;;;;;;;;;;;21.56;48.08;96335.03;10524468;28;2082;-45
2022/10/11 10:13:37;;;;;;;;;;;;;;;21.52;48.24;96335.84;10519180;28;3281;-46
2022/10/11 10:18:47;;;;;;;;;;;;;;;21.55;47.89;96335.31;10516758;28;3421;-45
2022/10/11 10:23:50;;;;;;;;;;;;;;;21.53;48.25;96337.44;10533030;28;2798;-46
2022/10/11 10:28:54;;;;;;;;;;;;;;;21.55;48.04;96335.31;10531358;28;2794;-47
2022/10/11 10:33:54;;;;;;;;;;;;;;;21.50;48.13;96338.75;10511934;28;3281;-46
2022/10/11 10:38:55;;;;;;;;;;;;;;;21.49;48.16;96341.66;10509895;28;3295;-45
2022/10/11 10:43:56;;;;;;;;;;;;;;;21.50;48.06;96338.75;10513838;28;3265;-47
2022/10/11 10:49:14;;;;;;;;;;;;;;;21.47;48.26;96339.28;10505757;28;2810;-50
2022/10/11 10:54:30;;;;;;;;;;;;;;;21.44;48.27;96337.16;10521635;28;3250;-46
2022/10/11 10:59:33;;;;;;;;;;;;;;;21.44;48.39;96331.88;10508316;28;3288;-46
2022/10/11 11:04:33;;;;;;;;;;;;;;;21.46;48.36;96332.41;10511745;28;3329;-46
2022/10/11 11:09:37;;;;;;;;;;;;;;;21.45;48.29;96327.41;10537057;28;2837;-50
2022/10/11 11:14:37;;;;;;;;;;;;;;;21.48;48.44;96322.38;10522366;28;3237;-45
2022/10/11 11:19:49;;;;;;;;;;;;;;;21.47;48.52;96317.38;10519886;28;2845;-46
2022/10/11 11:25:03;;;;;;;;;;;;;;;21.46;48.55;96319.22;10515982;28;2119;-46
2022/10/11 11:30:05;;;;;;;;;;;;;;;21.50;48.21;96316.84;10511516;28;2202;-48
2022/10/11 11:35:09;;;;;;;;;;;;;;;21.49;48.37;96312.63;10531353;28;2793;-45
2022/10/11 11:40:17;;;;;;;;;;;;;;;21.54;48.19;96304.69;10518874;28;3336;-43
2022/10/11 11:45:19;;;;;;;;;;;;;;;21.51;48.32;96305.25;10502595;28;2146;-45
2022/10/11 11:50:25;;;;;;;;;;;;;;;21.54;48.43;96304.69;10529551;28;2961;-46
2022/10/11 11:55:48;;;;;;;;;;;;;;;21.58;48.04;96311.03;10526058;28;3292;-45
2022/10/11 12:00:57;;;;;;;;;;;;;;;21.55;48.41;96307.09;10500803;28;3249;-45
2022/10/11 12:06:12;;;;;;;;;;;;;;;21.54;48.19;96302.88;10513673;28;2862;-47
2022/10/11 12:11:20;;;;;;;;;;;;;;;21.54;48.21;96297.59;10516117;28;2881;-46
2022/10/11 12:16:20;;;;;;;;;;;;;;;21.51;48.27;96299.97;10505888;28;3285;-46
2022/10/11 12:21:26;;;;;;;;;;;;;;;21.56;48.04;96290.19;10527364;28;2834;-46
2022/10/11 12:26:27;;;;;;;;;;;;;;;21.56;48.46;96284.91;10515948;28;2853;-48
2022/10/11 12:31:28;;;;;;;;;;;;;;;21.54;48.30;96281.75;10518787;28;3238;-49
2022/10/11 12:36:38;;;;;;;;;;;;;;;21.53;48.29;96276.75;10517732;28;3276;-48
2022/10/11 12:41:52;;;;;;;;;;;;;;;21.51;48.32;96276.22;10497774;28;2939;-46
2022/10/11 12:46:52;;;;;;;;;;;;;;;21.50;48.63;96266.72;10501984;28;2237;-49
2022/10/11 12:51:59;;;;;;;;;;;;;;;21.49;48.41;96273.88;10517560;28;3269;-48
2022/10/11 12:57:03;;;;;;;;;;;;;;;21.47;48.58;96275.19;10514386;28;2180;-45
2022/10/11 13:02:15;;;;;;;;;;;;;;;21.45;48.60;96272.03;10519009;28;2814;-49
2022/10/11 13:07:22;;;;;;;;;;;;;;;21.42;48.65;96273.34;10509237;28;2822;-47
2022/10/11 13:12:22;;;;;;;;;;;;;;;21.45;48.51;96272.03;10515794;28;2214;-46
2022/10/11 13:17:22;;;;;;;;;;;;;;;21.42;48.61;96277.81;10497121;28;2818;-49
2022/10/11 13:22:23;;;;;;;;;;;;;;;21.46;48.38;96271.75;10484511;28;2055;-45
2022/10/11 13:27:24;;;;;;;;;;;;;;;21.45;48.70;96274.66;10516521;28;3348;-49
2022/10/11 13:32:25;;;;;;;;;;;;;;;21.52;48.43;96262.78;10518337;28;3375;-47
2022/10/11 13:37:25;;;;;;;;;;;;;;;21.53;48.38;96268.84;10515951;28;2854;-47
2022/10/11 13:42:29;;;;;;;;;;;;;;;21.50;48.64;96270.16;10538024;28;2861;-45
2022/10/11 13:47:30;;;;;;;;;;;;;;;21.56;48.53;96268.28;10555742;27;3441;-46
2022/10/11 13:52:30;;;;;;;;;;;;;;;21.53;48.61;96258.28;10553716;27;2959;-47
2022/10/11 13:57:34;;;;;;;;;;;;;;;21.53;48.42;96269.63;10539741;28;2801;-46
2022/10/11 14:02:34;;;;;;;;;;;;;;;21.53;48.56;96264.38;10531369;28;2194;-48
2022/10/11 14:07:35;;;;;;;;;;;;;;;21.53;48.70;96263.56;10556181;27;3268;-46
2022/10/11 14:12:39;;;;;;;;;;;;;;;21.54;48.57;96262.50;10533644;28;2861;-46
2022/10/11 14:17:43;;;;;;;;;;;;;;;21.57;48.71;96267.25;10529159;28;2861;-50
2022/10/11 14:22:43;;;;;;;;;;;;;;;21.53;48.60;96267.00;10537919;28;2198;-47
2022/10/11 14:27:44;;;;;;;;;;;;;;;21.54;48.47;96265.13;10534532;28;3395;-50
2022/10/11 14:32:45;;;;;;;;;;;;;;;21.50;48.57;96264.09;10520318;28;3311;-46
2022/10/11 14:37:45;;;;;;;;;;;;;;;21.53;48.68;96263.56;10537317;28;3357;-46
2022/10/11 14:42:45;;;;;;;;;;;;;;;21.53;48.70;96263.56;10541678;28;2885;-46
2022/10/11 14:47:46;;;;;;;;;;;;;;;21.48;48.60;96266.19;10543118;27;2833;-46
2022/10/11 14:52:46;;;;;;;;;;;;;;;21.53;49.40;96268.84;10541506;28;2877;-45
2022/10/11 14:57:47;;;;;;;;;;;;;;;21.57;49.61;96269.88;10518527;28;2862;-48
2022/10/11 15:02:48;;;;;;;;;;;;;;;21.59;49.61;96271.22;10517857;28;2123;-47
2022/10/11 15:07:48;;;;;;;;;;;;;;;21.59;50.00;96258.03;10519468;28;2871;-47
2022/10/11 15:12:49;;;;;;;;;;;;;;;21.63;49.91;96264.34;10523480;28;3373;-47
2022/10/11 15:17:51;;;;;;;;;;;;;;;21.65;50.08;96262.22;10522940;28;3244;-45
2022/10/11 15:22:51;;;;;;;;;;;;;;;21.65;49.92;96261.44;10534575;28;2858;-46
2022/10/11 15:27:52;;;;;;;;;;;;;;;21.60;50.23;96269.34;10540580;27;2877;-45
2022/10/11 15:32:52;;;;;;;;;;;;;;;21.64;50.10;96265.09;10536133;28;3296;-45
2022/10/11 15:37:56;;;;;;;;;;;;;;;21.58;50.34;96261.69;10531091;28;3065;-49
2022/10/11 15:42:58;;;;;;;;;;;;;;;21.62;50.12;96262.75;10531754;28;3237;-46
2022/10/11 15:47:59;;;;;;;;;;;;;;;21.58;50.20;96266.19;10536767;28;3321;-46
2022/10/11 15:52:59;;;;;;;;;;;;;;;21.57;50.21;96270.69;10517316;28;3670;-47
2022/10/11 15:58:00;;;;;;;;;;;;;;;21.59;50.09;96267.78;10530880;28;2845;-48
2022/10/11 16:03:00;;;;;;;;;;;;;;;21.57;50.02;96269.88;10541477;27;3368;-45
2022/10/11 16:08:01;;;;;;;;;;;;;;;21.56;49.92;96266.44;10514553;28;2767;-48
2022/10/11 16:13:02;;;;;;;;;;;;;;;21.53;50.22;96266.22;10509759;28;3618;-46
2022/10/11 16:18:03;;;;;;;;;;;;;;;21.54;50.04;96270.41;10534468;28;2866;-47
2022/10/11 16:23:04;;;;;;;;;;;;;;;21.49;50.07;96271.22;10516985;28;3241;-46
2022/10/11 16:28:04;;;;;;;;;;;;;;;21.45;50.26;96272.03;10523835;28;3217;-46
2022/10/11 16:33:04;;;;;;;;;;;;;;;21.48;50.20;96266.19;10522584;28;3778;-47
2022/10/11 16:38:05;;;;;;;;;;;;;;;21.46;50.27;96271.75;10527887;28;2226;-47
2022/10/11 16:43:06;;;;;;;;;;;;;;;21.50;50.34;96274.63;10515579;28;2849;-45
2022/10/11 16:48:08;;;;;;;;;;;;;;;21.48;50.33;96288.09;10528530;28;2877;-45
2022/10/11 16:53:08;;;;;;;;;;;;;;;21.48;50.33;96288.09;10536428;28;3678;-46
2022/10/11 16:58:09;;;;;;;;;;;;;;;21.48;50.41;96289.94;10524128;28;2263;-46
2022/10/11 17:03:10;;;;;;;;;;;;;;;21.49;50.25;96292.34;10504716;28;2824;-45
2022/10/11 17:08:13;;;;;;;;;;;;;;;21.43;50.75;96287.31;10503073;28;2250;-47
2022/10/11 17:13:14;;;;;;;;;;;;;;;21.43;50.46;96288.09;10501422;28;2234;-48
2022/10/11 17:18:15;;;;;;;;;;;;;;;21.40;50.80;96285.22;10513709;28;2264;-47
2022/10/11 17:23:17;;;;;;;;;;;;;;;21.43;50.49;96288.09;10510257;28;3281;-49
2022/10/11 17:28:17;;;;;;;;;;;;;;;21.39;50.82;96287.03;10525779;28;3495;-49
2022/10/11 17:33:18;;;;;;;;;;;;;;;21.46;50.87;96294.69;10522246;28;3225;-46
2022/10/11 17:38:26;;;;;;;;;;;;;;;21.42;50.72;96296.28;10516455;28;2123;-47
2022/10/11 17:43:26;;;;;;;;;;;;;;;21.42;50.87;96296.28;10505887;28;2272;-46
2022/10/11 17:48:27;;;;;;;;;;;;;;;21.43;50.81;96298.66;10541630;28;3273;-46
2022/10/11 17:53:27;;;;;;;;;;;;;;;21.44;51.02;96299.44;10534575;28;2825;-45
2022/10/11 17:58:27;;;;;;;;;;;;;;;21.47;50.98;96301.56;10547472;27;3325;-48
2022/10/11 18:03:28;;;;;;;;;;;;;;;21.45;51.23;96309.72;10538210;28;3341;-45
2022/10/11 18:08:35;;;;;;;;;;;;;;;21.46;51.20;96300.75;10541131;28;3361;-48
2022/10/11 18:13:36;;;;;;;;;;;;;;;21.45;51.37;96296.53;10539081;28;2237;-44
2022/10/11 18:18:36;;;;;;;;;;;;;;;21.45;51.06;96293.13;10534132;28;2096;-48
2022/10/11 18:23:37;;;;;;;;;;;;;;;21.46;51.16;96289.41;10511081;28;2167;-45
2022/10/11 18:28:37;;;;;;;;;;;;;;;21.46;51.39;96284.16;10541467;28;2895;-46
2022/10/11 18:33:38;;;;;;;;;;;;;;;21.42;51.24;96280.44;10540234;28;2145;-48
2022/10/11 18:38:39;;;;;;;;;;;;;;;21.45;51.05;96279.94;10519315;28;3598;-45
2022/10/11 18:43:39;;;;;;;;;;;;;;;21.42;51.26;96275.97;10535231;27;3178;-47
2022/10/11 18:48:40;;;;;;;;;;;;;;;21.42;51.18;96277.81;10522156;28;2829;-47
2022/10/11 18:53:41;;;;;;;;;;;;;;;21.41;51.23;96278.88;10545485;27;3371;-49
2022/10/11 18:58:41;;;;;;;;;;;;;;;21.41;51.09;96286.81;10531862;28;2833;-46
2022/10/11 19:03:42;;;;;;;;;;;;;;;21.39;51.39;96283.63;10527638;28;3241;-45
2022/10/11 19:08:46;;;;;;;;;;;;;;;21.39;51.50;96281.78;10519178;28;3273;-47
2022/10/11 19:13:47;;;;;;;;;;;;;;;21.38;51.22;96279.41;10532999;28;3254;-50
2022/10/11 19:18:49;;;;;;;;;;;;;;;21.38;51.20;96284.69;10527841;28;3378;-46
2022/10/11 19:23:49;;;;;;;;;;;;;;;21.38;51.33;96287.31;10505099;28;3304;-46
2022/10/11 19:28:53;;;;;;;;;;;;;;;21.35;51.85;96286.00;10528099;28;3387;-47
2022/10/11 19:33:55;;;;;;;;;;;;;;;21.34;52.61;96278.34;10511143;28;2231;-44
2022/10/11 19:38:55;;;;;;;;;;;;;;;21.36;52.55;96289.44;10530913;28;3218;-45
2022/10/11 19:43:57;;;;;;;;;;;;;;;21.36;52.73;96284.94;10522005;28;2143;-45
2022/10/11 19:48:58;;;;;;;;;;;;;;;21.35;52.84;96277.31;10549460;27;3313;-47
2022/10/11 19:53:59;;;;;;;;;;;;;;;21.35;52.62;96275.44;10519663;28;3308;-47
2022/10/11 19:58:59;;;;;;;;;;;;;;;21.37;52.95;96277.84;10546425;27;2931;-48
2022/10/11 20:04:03;;;;;;;;;;;;;;;21.36;53.03;96270.97;10525394;28;2110;-46
2022/10/11 20:09:03;;;;;;;;;;;;;;;21.37;52.70;96278.59;10535617;27;2209;-46
2022/10/11 20:14:04;;;;;;;;;;;;;;;21.38;52.83;96279.41;10532156;28;3274;-47
2022/10/11 20:19:06;;;;;;;;;;;;;;;21.35;52.82;96293.91;10506533;28;2233;-47
2022/10/11 20:24:07;;;;;;;;;;;;;;;21.35;52.69;96293.13;10531525;28;3280;-47
2022/10/11 20:29:09;;;;;;;;;;;;;;;21.33;52.54;96288.09;10519266;28;3399;-46
2022/10/11 20:34:10;;;;;;;;;;;;;;;21.35;52.29;96291.28;10524985;28;2103;-49
2022/10/11 20:39:11;;;;;;;;;;;;;;;21.33;52.43;96295.25;10519483;28;2223;-50
2022/10/11 20:44:14;;;;;;;;;;;;;;;21.34;52.25;96291.53;10520594;28;3379;-49
2022/10/11 20:49:18;;;;;;;;;;;;;;;21.35;52.36;96288.63;10529289;28;2830;-47
2022/10/11 20:54:22;;;;;;;;;;;;;;;21.33;52.37;96284.69;10533477;28;2786;-45
2022/10/11 20:59:23;;;;;;;;;;;;;;;21.33;52.09;96284.69;10521161;28;3246;-48
2022/10/11 21:04:23;;;;;;;;;;;;;;;21.34;52.17;96275.72;10535049;28;2227;-47
2022/10/11 21:09:24;;;;;;;;;;;;;;;21.32;52.16;96275.19;10508995;28;2826;-49
2022/10/11 21:14:24;;;;;;;;;;;;;;;21.28;52.31;96276.78;10509915;28;2104;-46
2022/10/11 21:19:24;;;;;;;;;;;;;;;21.30;51.83;96272.03;10516858;28;3389;-49
2022/10/11 21:24:24;;;;;;;;;;;;;;;21.29;51.22;96267.84;10516895;28;2885;-48
2022/10/11 21:29:25;;;;;;;;;;;;;;;21.26;51.41;96270.97;10508640;28;2175;-47
2022/10/11 21:34:25;;;;;;;;;;;;;;;21.29;51.42;96278.38;10528653;28;2869;-48
2022/10/11 21:39:25;;;;;;;;;;;;;;;21.28;51.36;96284.69;10544112;28;2235;-47
2022/10/11 21:44:25;;;;;;;;;;;;;;;21.26;51.34;96284.97;10538419;28;2814;-50
2022/10/11 21:49:26;;;;;;;;;;;;;;;21.20;51.50;96274.69;10515079;28;2834;-48
2022/10/11 21:54:26;;;;;;;;;;;;;;;21.20;51.57;96272.03;10527266;28;3265;-50
2022/10/11 21:59:27;;;;;;;;;;;;;;;21.21;51.51;96269.13;10525285;28;2279;-47
2022/10/11 22:04:27;;;;;;;;;;;;;;;21.21;51.45;96269.13;10512726;28;3249;-47
2022/10/11 22:09:28;;;;;;;;;;;;;;;21.18;51.52;96271.53;10514553;28;3382;-46
2022/10/11 22:14:29;;;;;;;;;;;;;;;21.18;51.53;96277.59;10526722;28;2854;-48
2022/10/11 22:19:29;;;;;;;;;;;;;;;21.13;51.61;96268.88;10504165;28;3281;-47
2022/10/11 22:24:30;;;;;;;;;;;;;;;21.14;51.45;96259.91;10530094;28;2636;-47
2022/10/11 22:29:30;;;;;;;;;;;;;;;21.12;51.62;96256.75;10522482;28;3329;-46
2022/10/11 22:34:31;;;;;;;;;;;;;;;21.08;51.55;96245.97;10519479;28;3296;-47
2022/10/11 22:39:31;;;;;;;;;;;;;;;21.12;51.29;96246.22;10504766;28;3241;-47
2022/10/11 22:44:31;;;;;;;;;;;;;;;21.13;51.55;96247.78;10540641;28;2111;-48
2022/10/11 22:49:34;;;;;;;;;;;;;;;21.06;51.42;96243.56;10539077;28;3249;-46
2022/10/11 22:54:35;;;;;;;;;;;;;;;21.04;51.39;96247.53;10523286;28;3330;-46
2022/10/11 22:59:35;;;;;;;;;;;;;;;21.04;51.45;96245.69;10515444;28;2865;-49
2022/10/11 23:04:35;;;;;;;;;;;;;;;21.04;51.65;96245.69;10536016;28;2216;-47
2022/10/11 23:09:35;;;;;;;;;;;;;;;21.02;51.40;96253.06;10511830;28;3243;-45
2022/10/11 23:14:36;;;;;;;;;;;;;;;21.04;51.59;96250.94;10521816;28;2872;-47
2022/10/11 23:19:36;;;;;;;;;;;;;;;21.03;51.44;96252.03;10527556;28;3305;-47
2022/10/11 23:24:37;;;;;;;;;;;;;;;21.00;51.57;96249.88;10511462;28;2930;-45
2022/10/11 23:29:40;;;;;;;;;;;;;;;21.00;51.22;96257.78;10536000;28;3583;-46
2022/10/11 23:34:40;;;;;;;;;;;;;;;21.02;51.36;96257.53;10537619;28;2144;-45
2022/10/11 23:39:41;;;;;;;;;;;;;;;21.00;51.07;96252.50;10530178;28;2199;-46
2022/10/11 23:44:41;;;;;;;;;;;;;;;20.99;51.46;96263.31;10536238;28;2838;-48
2022/10/11 23:49:43;;;;;;;;;;;;;;;20.98;51.32;96264.34;10531381;28;2131;-46
2022/10/11 23:54:44;;;;;;;;;;;;;;;20.99;51.29;96260.69;10533763;28;2873;-47
2022/10/11 23:59:44;;;;;;;;;;;;;;;20.95;51.49;96260.44;10531228;28;3289;-46
